Flugplatz Heubach (EDTH)

Hier findest Du alle Informationen zum Flugplatz Heubach (EDTH).

Informationen für Piloten zum Flugplatz Heubach

Hier findest Du alle relevanten Informationen, die Du als Pilot benötigst, um Heubach anzufliegen.

Flugplatz: Heubach ICAO-Code: EDTH
Frequenz Turm: 123,025 Mhz GAFOR Gebiet: 62
Frequenz Ground: 123,025 Mhz Mogas: ja
Platzrunde: N 2200 ft Landegebühr: -
Platzhöhe: - Sunrise: 04:01 Uhr UTC
Pisten: 07/25 - 750 m x 20 m, ASPH Sunset: 18:50 Uhr UTC

Flugwetter am Flugplatz Heubach

Die METAR Information stammen aus EDDS (53.30 km entfernt).

METAR Code:
2022/08/03 18:50
EDDS 031850Z AUTO 09002KT CAVOK 28/16 Q1015 NOSIG

Temperatur: 21,4 °C Niederschlag: - Wind: 4,4 kt (max.: 5,3 kt in Böen)
Temperatur (min.): 18,1 °C Luftdruck: 1023 hPa Windrichtung: 90 °
Temperatur (max.): 21,5 °C Luftfeuchtigkeit: 48 % Bewölkung: 1/8

Flugschulen am Flugplatz Heubach

Am Flugplatz Heubach gibt es leider keine Flugschule.

Benachbarte Flugplätze und Flugschulen

Es gibt 32 weitere Flugplätze in einem Umkreis von 50 km um den Flugplatz Heubach.

Jetzt anmelden

Passwort vergessen

Umfrage Archiv

Sendet Ihr ADS-B und/oder FLARM?

Ja
83.2 %
Nein
16.8 %
Stimmen: 197 | Diskussion
Anzeige: Roland Aircraft
Statistik Alle Mitglieder

Aktuell sind 69 Besucher online, davon 2 Mitglieder und 67 Gäste.


Mitglieder online:
Oliver_K  b3nn0 

Anzeige: ULPower Aero Engines Anzeige: Pocket FMS